DLH468 EDDF-KAUS
Flight info
| Callsign | DLH468 |
|---|---|
| Flight time | N/A |
| Altitude | 36000 |
| Route | OBOKA5G OBOKA Z28 DIBIR DCT BUDIP DCT MIMVA DCT GETNO DCT NIBOG DCT PIKIL/M084F380 DCT 57N020W 58N030W 57N040W 55N050W DCT LOMSI/N0480F380 DCT ANATI/N0477F400 Q812 MAIRE DCT GONZZ Q29 MEMFS Q34 TXK DCT CQY DCT WINDU SEWZY6 |
| Aircraft | B789/H-SADFGHIJ1J2J3J4J5LOP1P2RWXYZ/LB1D1 |
Departure
| Time | 2026-04-14 07:03 |
|---|---|
| Airport | Frankfurt Main Airport (EDDF) |
Arrival
| Time | N/A |
|---|---|
| Airport | Austin Bergstrom International Airport (KAUS) |
| Time | Latitude | Longitude | Altitude | Speed | Heading |
|---|---|---|---|---|---|
| 2026-04-14 06:27 | 50.04683 | 8.56040 | 361 ft | 0 kts | 340° |
| 2026-04-14 06:50 | 50.04665 | 8.56049 | 366 ft | 4 kts | 341° |
| 2026-04-14 06:50 | 50.04639 | 8.56063 | 366 ft | 4 kts | 340° |
| 2026-04-14 06:51 | 50.04615 | 8.56079 | 367 ft | 4 kts | 331° |
| 2026-04-14 06:51 | 50.04596 | 8.56101 | 366 ft | 4 kts | 301° |
| 2026-04-14 06:51 | 50.04592 | 8.56119 | 367 ft | 2 kts | 251° |
| 2026-04-14 06:51 | 50.04586 | 8.56097 | 365 ft | 4 kts | 248° |
| 2026-04-14 06:52 | 50.04578 | 8.56063 | 365 ft | 3 kts | 249° |
| 2026-04-14 06:52 | 50.04577 | 8.56059 | 365 ft | 0 kts | 250° |
| 2026-04-14 06:55 | 50.04576 | 8.56054 | 361 ft | 1 kts | 250° |
| 2026-04-14 06:55 | 50.04568 | 8.56025 | 366 ft | 5 kts | 246° |
| 2026-04-14 06:55 | 50.04539 | 8.55971 | 364 ft | 8 kts | 214° |
| 2026-04-14 06:55 | 50.04486 | 8.55938 | 367 ft | 8 kts | 197° |
| 2026-04-14 06:56 | 50.04430 | 8.55914 | 367 ft | 9 kts | 191° |
| 2026-04-14 06:56 | 50.04357 | 8.55922 | 350 ft | 12 kts | 163° |
| 2026-04-14 06:56 | 50.04275 | 8.55953 | 363 ft | 12 kts | 183° |
| 2026-04-14 06:56 | 50.04195 | 8.55917 | 362 ft | 12 kts | 178° |
| 2026-04-14 06:57 | 50.04112 | 8.55955 | 362 ft | 12 kts | 159° |
| 2026-04-14 06:57 | 50.04075 | 8.56048 | 362 ft | 10 kts | 82° |
| 2026-04-14 06:57 | 50.04095 | 8.56148 | 361 ft | 10 kts | 69° |
| 2026-04-14 06:57 | 50.04122 | 8.56259 | 363 ft | 13 kts | 69° |
| 2026-04-14 06:58 | 50.04158 | 8.56406 | 364 ft | 16 kts | 70° |
| 2026-04-14 06:58 | 50.04201 | 8.56588 | 364 ft | 19 kts | 70° |
| 2026-04-14 06:58 | 50.04247 | 8.56783 | 368 ft | 18 kts | 70° |
| 2026-04-14 06:58 | 50.04291 | 8.56964 | 368 ft | 19 kts | 69° |
| 2026-04-14 06:59 | 50.04337 | 8.57160 | 366 ft | 19 kts | 69° |
| 2026-04-14 06:59 | 50.04383 | 8.57352 | 371 ft | 19 kts | 69° |
| 2026-04-14 06:59 | 50.04429 | 8.57544 | 372 ft | 18 kts | 69° |
| 2026-04-14 06:59 | 50.04471 | 8.57717 | 375 ft | 18 kts | 69° |
| 2026-04-14 07:00 | 50.04514 | 8.57898 | 371 ft | 18 kts | 70° |
| 2026-04-14 07:00 | 50.04556 | 8.58077 | 372 ft | 18 kts | 70° |
| 2026-04-14 07:00 | 50.04597 | 8.58250 | 375 ft | 15 kts | 70° |
| 2026-04-14 07:00 | 50.04632 | 8.58395 | 376 ft | 14 kts | 69° |
| 2026-04-14 07:01 | 50.04646 | 8.58533 | 376 ft | 12 kts | 109° |
| 2026-04-14 07:01 | 50.04589 | 8.58590 | 376 ft | 9 kts | 159° |
| 2026-04-14 07:01 | 50.04535 | 8.58614 | 376 ft | 7 kts | 178° |
| 2026-04-14 07:01 | 50.04492 | 8.58591 | 376 ft | 6 kts | 219° |
| 2026-04-14 07:02 | 50.04476 | 8.58541 | 375 ft | 6 kts | 249° |
| 2026-04-14 07:02 | 50.04435 | 8.58367 | 380 ft | 37 kts | 249° |
| 2026-04-14 07:02 | 50.04274 | 8.57690 | 369 ft | 95 kts | 250° |
| 2026-04-14 07:02 | 50.03979 | 8.56461 | 367 ft | 146 kts | 249° |
| 2026-04-14 07:03 | 50.03573 | 8.54788 | 458 ft | 174 kts | 249° |
| 2026-04-14 07:03 | 50.03140 | 8.53111 | 1089 ft | 164 kts | 250° |
| 2026-04-14 07:03 | 50.02718 | 8.51439 | 1434 ft | 178 kts | 253° |
| 2026-04-14 07:03 | 50.02711 | 8.49453 | 1737 ft | 187 kts | 285° |
| 2026-04-14 07:04 | 50.02926 | 8.47406 | 2252 ft | 202 kts | 279° |
| 2026-04-14 07:04 | 50.03042 | 8.45102 | 2597 ft | 224 kts | 276° |
| 2026-04-14 07:04 | 50.02854 | 8.42612 | 3012 ft | 244 kts | 262° |
| 2026-04-14 07:04 | 50.02499 | 8.39891 | 3302 ft | 264 kts | 261° |
| 2026-04-14 07:05 | 50.02148 | 8.37120 | 4235 ft | 262 kts | 262° |
| 2026-04-14 07:05 | 50.01820 | 8.34314 | 5085 ft | 264 kts | 262° |
| 2026-04-14 07:05 | 50.01487 | 8.31494 | 5925 ft | 267 kts | 261° |
| 2026-04-14 07:05 | 50.01272 | 8.28632 | 6664 ft | 268 kts | 279° |
| 2026-04-14 07:06 | 50.01817 | 8.25887 | 7397 ft | 268 kts | 292° |
| 2026-04-14 07:06 | 50.02566 | 8.23225 | 8157 ft | 271 kts | 295° |
| 2026-04-14 07:06 | 50.03383 | 8.20564 | 8937 ft | 270 kts | 294° |
| 2026-04-14 07:06 | 50.04174 | 8.17885 | 9574 ft | 275 kts | 293° |
| 2026-04-14 07:07 | 50.04960 | 8.15149 | 10196 ft | 279 kts | 292° |
| 2026-04-14 07:07 | 50.05802 | 8.12312 | 10358 ft | 301 kts | 298° |
| 2026-04-14 07:07 | 50.07141 | 8.09649 | 10404 ft | 325 kts | 309° |
| 2026-04-14 07:07 | 50.08588 | 8.06851 | 10783 ft | 334 kts | 306° |
| 2026-04-14 07:08 | 50.10022 | 8.03995 | 11434 ft | 337 kts | 306° |
| 2026-04-14 07:08 | 50.11494 | 8.01124 | 11999 ft | 341 kts | 307° |